createdAt,value
2023-04-15T00:01:11.896Z,98575.00
2023-04-15T00:03:39.188Z,98569.91
2023-04-15T00:06:06.206Z,98574.78
2023-04-15T00:08:33.276Z,98565.69
2023-04-15T00:11:03.345Z,98564.72
2023-04-15T00:13:30.331Z,98567.47
2023-04-15T00:15:57.375Z,98564.97
2023-04-15T00:18:24.780Z,98572.06
2023-04-15T00:20:52.509Z,98562.88
2023-04-15T00:23:19.441Z,98571.13
2023-04-15T00:25:46.922Z,98560.56
2023-04-15T00:28:13.891Z,98562.88
2023-04-15T00:30:40.689Z,98559.03
2023-04-15T00:33:07.959Z,98562.59
2023-04-15T00:35:35.879Z,98558.03
2023-04-15T00:38:02.590Z,98560.66
2023-04-15T00:40:29.317Z,98566.31
2023-04-15T00:42:56.045Z,98567.09
2023-04-15T00:45:23.381Z,98564.47
2023-04-15T00:47:51.333Z,98560.47
2023-04-15T00:50:18.002Z,98558.50
2023-04-15T00:52:44.694Z,98556.78
2023-04-15T00:55:11.694Z,98551.66
2023-04-15T00:57:39.578Z,98543.06
2023-04-15T01:00:08.162Z,98550.91
2023-04-15T01:02:36.519Z,98551.16
2023-04-15T01:05:05.672Z,98552.69
2023-04-15T01:07:32.435Z,98554.22
2023-04-15T01:09:59.262Z,98538.41
2023-04-15T01:12:27.644Z,98544.75
2023-04-15T01:14:56.129Z,98544.75
2023-04-15T01:17:24.603Z,98540.59
2023-04-15T01:19:52.330Z,98530.38
2023-04-15T01:22:19.096Z,98531.81
2023-04-15T01:24:56.334Z,98537.13
2023-04-15T01:27:23.280Z,98534.94
2023-04-15T01:29:50.006Z,98540.50
2023-04-15T01:32:17.221Z,98541.81
2023-04-15T01:34:43.998Z,98547.03
2023-04-15T01:37:10.720Z,98545.50
2023-04-15T01:39:37.426Z,98546.94
2023-04-15T01:42:04.172Z,98552.28
2023-04-15T01:44:31.062Z,98546.16
2023-04-15T01:46:58.500Z,98549.00
2023-04-15T01:49:25.456Z,98554.81
2023-04-15T01:51:52.187Z,98546.66
2023-04-15T01:54:18.863Z,98551.88
2023-04-15T01:56:45.663Z,98551.00
2023-04-15T01:59:12.446Z,98554.03
2023-04-15T02:01:39.737Z,98563.22
2023-04-15T02:04:07.281Z,98564.28
2023-04-15T02:06:34.180Z,98560.13
2023-04-15T02:09:01.071Z,98558.88
2023-04-15T02:11:28.265Z,98559.75
2023-04-15T02:13:55.130Z,98563.44
2023-04-15T02:16:22.040Z,98558.97
2023-04-15T02:18:48.888Z,98560.63
2023-04-15T02:21:15.655Z,98552.56
2023-04-15T02:23:44.005Z,98560.84
2023-04-15T02:26:11.048Z,98551.00
2023-04-15T02:28:38.236Z,98555.63
2023-04-15T02:31:08.228Z,98553.44
2023-04-15T02:33:35.109Z,98549.50
2023-04-15T02:36:01.852Z,98551.91
2023-04-15T02:38:28.567Z,98556.50
2023-04-15T02:40:55.513Z,98554.09
2023-04-15T02:43:22.364Z,98557.91
2023-04-15T02:45:50.116Z,98569.88
2023-04-15T02:48:19.402Z,98561.47
2023-04-15T02:50:47.105Z,98567.03
2023-04-15T02:53:14.667Z,98568.88
2023-04-15T02:55:42.773Z,98567.34
2023-04-15T02:58:09.508Z,98567.81
2023-04-15T03:00:36.243Z,98568.34
2023-04-15T03:03:06.856Z,98556.16
2023-04-15T03:05:33.795Z,98561.16
2023-04-15T03:08:01.398Z,98554.97
2023-04-15T03:10:28.508Z,98554.31
2023-04-15T03:12:55.664Z,98551.50
2023-04-15T03:15:23.137Z,98556.16
2023-04-15T03:17:50.029Z,98552.47
2023-04-15T03:20:17.083Z,98561.50
2023-04-15T03:22:43.995Z,98558.88
2023-04-15T03:25:10.828Z,98559.88
2023-04-15T03:27:38.476Z,98557.91
2023-04-15T03:30:06.746Z,98563.25
2023-04-15T03:32:33.760Z,98558.13
2023-04-15T03:35:00.511Z,98560.22
2023-04-15T03:37:27.493Z,98562.16
2023-04-15T03:39:54.243Z,98565.53
2023-04-15T03:42:20.956Z,98566.72
2023-04-15T03:44:47.726Z,98567.59
2023-04-15T03:47:14.373Z,98567.59
2023-04-15T03:49:41.426Z,98563.13
2023-04-15T03:52:08.190Z,98565.19
2023-04-15T03:54:34.901Z,98558.00
2023-04-15T03:57:01.749Z,98559.97
2023-04-15T03:59:28.473Z,98563.78
2023-04-15T04:01:55.512Z,98561.28
2023-04-15T04:04:22.558Z,98562.06
2023-04-15T04:06:49.538Z,98558.22
2023-04-15T04:09:16.270Z,98549.28
2023-04-15T04:11:43.086Z,98552.31
2023-04-15T04:14:10.594Z,98558.31
2023-04-15T04:16:37.312Z,98547.75
2023-04-15T04:19:04.142Z,98551.91
2023-04-15T04:21:31.076Z,98559.88
2023-04-15T04:23:59.068Z,98553.66
2023-04-15T04:26:26.163Z,98552.47
2023-04-15T04:28:52.962Z,98560.06
2023-04-15T04:31:19.758Z,98556.38
2023-04-15T04:33:46.548Z,98557.81
2023-04-15T04:36:13.287Z,98558.69
2023-04-15T04:38:39.989Z,98554.31
2023-04-15T04:41:06.733Z,98558.00
2023-04-15T04:43:33.458Z,98556.16
2023-04-15T04:46:00.226Z,98557.03
2023-04-15T04:48:27.174Z,98555.19
2023-04-15T04:50:53.926Z,98544.91
2023-04-15T04:53:20.713Z,98554.50
2023-04-15T04:55:47.468Z,98556.44
2023-04-15T04:58:14.216Z,98561.25
2023-04-15T05:00:41.077Z,98566.91
2023-04-15T05:03:08.039Z,98562.31
2023-04-15T05:05:36.970Z,98562.50
2023-04-15T05:08:03.883Z,98562.69
2023-04-15T05:10:30.561Z,98564.91
2023-04-15T05:12:57.724Z,98566.84
2023-04-15T05:15:24.700Z,98563.47
2023-04-15T05:17:51.738Z,98564.44
2023-04-15T05:20:18.592Z,98571.19
2023-04-15T05:22:45.497Z,98573.66
2023-04-15T05:25:12.619Z,98568.31
2023-04-15T05:27:39.450Z,98570.28
2023-04-15T05:30:07.303Z,98565.81
2023-04-15T05:32:34.021Z,98575.03
2023-04-15T05:35:01.075Z,98569.56
2023-04-15T05:37:27.896Z,98576.38
2023-04-15T05:39:54.581Z,98577.50
2023-04-15T05:42:21.547Z,98578.75
2023-04-15T05:44:48.285Z,98580.06
2023-04-15T05:47:14.951Z,98584.00
2023-04-15T05:49:41.702Z,98584.19
2023-04-15T05:52:08.410Z,98585.91
2023-04-15T05:54:35.218Z,98581.03
2023-04-15T05:57:02.746Z,98587.69
2023-04-15T05:59:29.605Z,98595.06
2023-04-15T06:01:56.583Z,98595.16
2023-04-15T06:04:23.410Z,98602.16
2023-04-15T06:06:50.261Z,98600.13
2023-04-15T06:09:17.037Z,98605.09
2023-04-15T06:11:43.796Z,98600.38
2023-04-15T06:14:10.520Z,98608.84
2023-04-15T06:16:37.478Z,98608.41
2023-04-15T06:19:04.290Z,98610.78
2023-04-15T06:21:31.633Z,98611.09
2023-04-15T06:24:00.145Z,98613.41
2023-04-15T06:26:27.244Z,98616.63
2023-04-15T06:28:54.207Z,98611.09
2023-04-15T06:31:20.965Z,98612.91
2023-04-15T06:33:47.685Z,98607.84
2023-04-15T06:36:14.432Z,98611.44
2023-04-15T06:38:41.383Z,98631.06
2023-04-15T06:41:08.120Z,98630.16
2023-04-15T06:43:35.116Z,98639.84
2023-04-15T06:46:02.364Z,98642.06
2023-04-15T06:48:29.229Z,98635.22
2023-04-15T06:50:56.332Z,98635.66
2023-04-15T06:53:23.164Z,98632.47
2023-04-15T06:55:49.886Z,98632.09
2023-04-15T06:58:17.201Z,98633.16
2023-04-15T07:00:44.645Z,98638.19
2023-04-15T07:03:12.888Z,98637.59
2023-04-15T07:05:39.710Z,98638.94
2023-04-15T07:08:06.880Z,98628.94
2023-04-15T07:10:34.317Z,98631.38
2023-04-15T07:13:01.828Z,98635.22
2023-04-15T07:15:28.849Z,98638.81
2023-04-15T07:17:56.769Z,98649.13
2023-04-15T07:20:23.513Z,98645.19
2023-04-15T07:22:50.196Z,98637.50
2023-04-15T07:25:17.736Z,98643.66
2023-04-15T07:27:44.729Z,98637.28
2023-04-15T07:30:12.640Z,98636.03
2023-04-15T07:32:39.424Z,98637.03
2023-04-15T07:35:06.453Z,98639.25
2023-04-15T07:37:33.631Z,98645.09
2023-04-15T07:40:00.394Z,98647.00
2023-04-15T07:42:27.590Z,98642.00
2023-04-15T07:44:54.337Z,98642.47
2023-04-15T07:47:21.343Z,98652.03
2023-04-15T07:49:48.241Z,98652.13
2023-04-15T07:52:14.942Z,98650.38
2023-04-15T07:54:41.781Z,98656.34
2023-04-15T07:57:08.742Z,98652.19
2023-04-15T07:59:35.476Z,98653.88
2023-04-15T08:02:02.692Z,98661.41
2023-04-15T08:04:29.686Z,98658.56
2023-04-15T08:06:56.565Z,98654.06
2023-04-15T08:09:23.347Z,98657.09
2023-04-15T08:11:51.196Z,98656.53
2023-04-15T08:14:18.086Z,98655.56
2023-04-15T08:16:44.805Z,98656.31
2023-04-15T08:19:11.512Z,98662.44
2023-04-15T08:21:38.245Z,98653.50
2023-04-15T08:24:06.917Z,98662.66
2023-04-15T08:26:33.776Z,98668.28
2023-04-15T08:29:00.868Z,98670.41
2023-04-15T08:31:29.942Z,98671.63
2023-04-15T08:33:57.648Z,98676.28
2023-04-15T08:36:24.400Z,98674.06
2023-04-15T08:38:51.252Z,98677.38
2023-04-15T08:41:25.779Z,98676.63
2023-04-15T08:44:02.082Z,98673.97
2023-04-15T08:46:30.134Z,98668.28
2023-04-15T08:48:58.111Z,98664.53
2023-04-15T08:51:25.825Z,98672.06
2023-04-15T08:53:53.885Z,98683.69
2023-04-15T08:56:25.022Z,98680.50
2023-04-15T08:58:52.576Z,98679.59
2023-04-15T09:01:19.454Z,98693.47
2023-04-15T09:03:49.008Z,98691.19
2023-04-15T09:06:17.358Z,98691.81
2023-04-15T09:08:44.854Z,98687.91
2023-04-15T09:11:12.319Z,98691.22
2023-04-15T09:13:39.519Z,98686.66
2023-04-15T09:16:06.845Z,98686.97
2023-04-15T09:18:34.703Z,98687.47
2023-04-15T09:21:11.395Z,98692.06
2023-04-15T09:23:39.940Z,98685.44
2023-04-15T09:26:07.306Z,98693.16
2023-04-15T09:28:35.956Z,98694.63
2023-04-15T09:31:02.838Z,98685.59
2023-04-15T09:33:30.201Z,98690.84
2023-04-15T09:36:05.053Z,98690.03
2023-04-15T09:38:32.047Z,98684.72
2023-04-15T09:40:59.662Z,98693.53
2023-04-15T09:43:40.028Z,98685.69
2023-04-15T09:46:06.939Z,98690.75
2023-04-15T09:48:33.713Z,98692.69
2023-04-15T09:51:01.771Z,98695.22
2023-04-15T09:53:30.580Z,98709.81
2023-04-15T09:56:02.316Z,98701.03
2023-04-15T09:58:35.004Z,98699.06
2023-04-15T10:01:04.021Z,98698.13
2023-04-15T10:03:34.189Z,98711.25
2023-04-15T10:06:02.162Z,98697.94
2023-04-15T10:08:30.945Z,98696.69
2023-04-15T10:10:57.762Z,98698.06
2023-04-15T10:13:26.825Z,98694.19
2023-04-15T10:16:01.453Z,98694.66
2023-04-15T10:18:29.092Z,98697.59
2023-04-15T10:20:56.025Z,98694.88
2023-04-15T10:23:24.468Z,98696.13
2023-04-15T10:25:53.554Z,98695.19
2023-04-15T10:28:22.741Z,98689.78
2023-04-15T10:30:50.136Z,98690.94
2023-04-15T10:33:23.290Z,98704.31
2023-04-15T10:35:51.738Z,98701.25
2023-04-15T10:38:38.563Z,98708.25
2023-04-15T10:41:21.065Z,98710.09
2023-04-15T10:43:48.587Z,98705.88
2023-04-15T10:46:18.994Z,98709.56
2023-04-15T10:48:53.409Z,98709.31
2023-04-15T10:51:31.022Z,98716.94
2023-04-15T10:53:59.741Z,98716.56
2023-04-15T10:56:28.629Z,98712.50
2023-04-15T10:58:55.557Z,98723.41
2023-04-15T11:01:25.290Z,98723.28
2023-04-15T11:03:52.345Z,98719.44
2023-04-15T11:06:19.288Z,98732.16
2023-04-15T11:09:02.526Z,98723.94
2023-04-15T11:12:09.847Z,98731.72
2023-04-15T11:14:41.920Z,98728.97
2023-04-15T11:17:08.664Z,98735.88
2023-04-15T11:19:41.719Z,98730.75
2023-04-15T11:22:11.560Z,98732.91
2023-04-15T11:24:48.397Z,98737.19
2023-04-15T11:27:24.305Z,98722.94
2023-04-15T11:29:51.362Z,98733.06
2023-04-15T11:32:18.355Z,98726.88
2023-04-15T11:34:46.877Z,98740.28
2023-04-15T11:37:13.811Z,98739.72
2023-04-15T11:39:40.501Z,98731.25
2023-04-15T11:42:17.469Z,98734.22
2023-04-15T11:44:44.257Z,98739.34
2023-04-15T11:47:24.359Z,98743.41
2023-04-15T11:49:51.482Z,98737.03
2023-04-15T11:52:18.185Z,98739.13
2023-04-15T11:54:44.953Z,98745.59
2023-04-15T11:57:11.628Z,98744.63
2023-04-15T11:59:46.025Z,98740.13
2023-04-15T12:02:14.369Z,98743.22
2023-04-15T12:04:41.470Z,98743.28
2023-04-15T12:07:08.885Z,98742.25
2023-04-15T12:09:39.847Z,98742.00
2023-04-15T12:12:06.582Z,98737.91
2023-04-15T12:14:34.154Z,98738.09
2023-04-15T12:17:02.092Z,98750.31
2023-04-15T12:19:37.178Z,98750.19
2023-04-15T12:22:05.513Z,98754.00
2023-04-15T12:24:33.989Z,98751.44
2023-04-15T12:27:06.107Z,98758.34
2023-04-15T12:29:34.297Z,98761.75
2023-04-15T12:32:22.024Z,98754.03
2023-04-15T12:34:53.143Z,98752.94
2023-04-15T12:37:20.231Z,98757.53
2023-04-15T12:39:49.494Z,98756.53
2023-04-15T12:42:16.856Z,98749.19
2023-04-15T12:44:43.803Z,98749.03
2023-04-15T12:47:11.361Z,98744.34
2023-04-15T12:49:39.343Z,98748.53
2023-04-15T12:52:06.469Z,98756.50
2023-04-15T12:54:33.518Z,98757.00
2023-04-15T12:57:00.947Z,98763.28
2023-04-15T12:59:28.196Z,98774.72
2023-04-15T13:01:54.988Z,98772.44
2023-04-15T13:04:22.415Z,98774.88
2023-04-15T13:06:49.589Z,98778.06
2023-04-15T13:09:16.351Z,98776.91
2023-04-15T13:11:43.339Z,98773.03
2023-04-15T13:14:11.697Z,98772.56
2023-04-15T13:16:38.999Z,98774.28
2023-04-15T13:19:06.001Z,98777.75
2023-04-15T13:21:35.598Z,98773.66
2023-04-15T13:24:03.556Z,98767.38
2023-04-15T13:26:31.349Z,98773.94
2023-04-15T13:28:58.081Z,98771.50
2023-04-15T13:31:24.895Z,98772.53
2023-04-15T13:33:51.629Z,98778.38
2023-04-15T13:36:18.369Z,98780.16
2023-04-15T13:38:45.234Z,98786.22
2023-04-15T13:41:11.941Z,98787.94
2023-04-15T13:43:38.706Z,98786.09
2023-04-15T13:46:05.835Z,98787.13
2023-04-15T13:48:32.577Z,98788.38
2023-04-15T13:50:59.305Z,98785.56
2023-04-15T13:53:28.234Z,98787.53
2023-04-15T13:56:09.020Z,98791.03
2023-04-15T13:58:36.770Z,98793.72
2023-04-15T14:01:05.813Z,98798.69
2023-04-15T14:03:33.735Z,98794.53
2023-04-15T14:06:01.079Z,98801.56
2023-04-15T14:08:27.885Z,98796.78
2023-04-15T14:10:54.627Z,98811.91
2023-04-15T14:13:21.368Z,98811.13
2023-04-15T14:15:48.190Z,98816.31
2023-04-15T14:18:15.004Z,98810.94
2023-04-15T14:20:41.699Z,98809.69
2023-04-15T14:23:08.399Z,98806.47
2023-04-15T14:25:35.205Z,98829.00
2023-04-15T14:28:03.452Z,98820.53
2023-04-15T14:30:30.577Z,98821.56
2023-04-15T14:32:57.483Z,98830.44
2023-04-15T14:35:26.534Z,98831.38
2023-04-15T14:37:54.059Z,98819.81
2023-04-15T14:40:20.897Z,98817.47
2023-04-15T14:42:47.776Z,98815.81
2023-04-15T14:45:14.547Z,98814.22
2023-04-15T14:47:41.308Z,98820.00
2023-04-15T14:50:08.578Z,98822.09
2023-04-15T14:52:38.864Z,98823.41
2023-04-15T14:55:10.380Z,98824.03
2023-04-15T14:57:37.954Z,98829.94
2023-04-15T15:00:07.003Z,98828.00
2023-04-15T15:02:39.019Z,98832.88
2023-04-15T15:05:07.605Z,98841.25
2023-04-15T15:07:36.047Z,98839.75
2023-04-15T15:10:03.192Z,98844.19
2023-04-15T15:12:29.915Z,98840.38
2023-04-15T15:14:56.747Z,98840.69
2023-04-15T15:17:23.556Z,98842.97
2023-04-15T15:19:50.353Z,98852.34
2023-04-15T15:22:19.437Z,98848.13
2023-04-15T15:24:47.732Z,98843.13
2023-04-15T15:27:14.456Z,98849.06
2023-04-15T15:29:41.263Z,98852.28
2023-04-15T15:32:08.108Z,98859.78
2023-04-15T15:34:34.809Z,98855.59
2023-04-15T15:37:01.763Z,98869.66
2023-04-15T15:39:28.669Z,98887.19
2023-04-15T15:41:55.420Z,98893.88
2023-04-15T15:44:22.178Z,98908.22
2023-04-15T15:46:50.432Z,98908.84
2023-04-15T15:49:17.169Z,98900.75
2023-04-15T15:51:44.040Z,98902.34
2023-04-15T15:54:10.727Z,98898.72
2023-04-15T15:56:39.417Z,98899.19
2023-04-15T15:59:06.411Z,98901.31
2023-04-15T16:01:33.673Z,98905.66
2023-04-15T16:04:00.906Z,98906.50
2023-04-15T16:06:28.186Z,98911.31
2023-04-15T16:08:54.960Z,98906.75
2023-04-15T16:11:21.730Z,98901.94
2023-04-15T16:13:48.546Z,98899.13
2023-04-15T16:16:15.533Z,98909.81
2023-04-15T16:18:42.314Z,98922.53
2023-04-15T16:21:09.141Z,98920.06
2023-04-15T16:23:36.717Z,98926.81
2023-04-15T16:26:03.527Z,98922.94
2023-04-15T16:28:30.323Z,98927.66
2023-04-15T16:30:57.196Z,98927.75
2023-04-15T16:33:24.075Z,98930.91
2023-04-15T16:35:51.326Z,98928.78
2023-04-15T16:38:18.178Z,98934.88
2023-04-15T16:40:44.914Z,98932.69
2023-04-15T16:43:11.639Z,98938.81
2023-04-15T16:45:38.787Z,98938.53
2023-04-15T16:48:05.838Z,98940.91
2023-04-15T16:50:32.602Z,98936.75
2023-04-15T16:52:59.327Z,98941.69
2023-04-15T16:55:26.745Z,98948.81
2023-04-15T16:58:02.742Z,98947.28
2023-04-15T17:00:31.432Z,98953.66
2023-04-15T17:02:59.275Z,98954.66
2023-04-15T17:05:30.538Z,98957.19
2023-04-15T17:07:57.418Z,98956.75
2023-04-15T17:10:24.241Z,98965.66
2023-04-15T17:12:52.260Z,98967.84
2023-04-15T17:15:19.935Z,98974.53
2023-04-15T17:17:46.698Z,98965.47
2023-04-15T17:20:13.488Z,98968.00
2023-04-15T17:22:40.293Z,98978.09
2023-04-15T17:25:07.431Z,98968.91
2023-04-15T17:27:34.158Z,98982.38
2023-04-15T17:30:00.899Z,98986.03
2023-04-15T17:32:34.310Z,98984.31
2023-04-15T17:35:02.892Z,98987.56
2023-04-15T17:37:29.641Z,98990.00
2023-04-15T17:39:56.378Z,98998.13
2023-04-15T17:42:23.144Z,99000.53
2023-04-15T17:44:49.913Z,99000.78
2023-04-15T17:47:17.062Z,99005.94
2023-04-15T17:49:44.339Z,99008.69
2023-04-15T17:52:11.320Z,99006.28
2023-04-15T17:54:38.024Z,99014.81
2023-04-15T17:57:04.784Z,99017.22
2023-04-15T17:59:32.830Z,99026.84
2023-04-15T18:01:59.721Z,99022.47
2023-04-15T18:04:26.873Z,99027.16
2023-04-15T18:06:53.943Z,99029.91
2023-04-15T18:09:20.958Z,99025.50
2023-04-15T18:11:48.841Z,99032.91
2023-04-15T18:14:26.979Z,99037.06
2023-04-15T18:17:00.588Z,99029.81
2023-04-15T18:19:27.462Z,99044.66
2023-04-15T18:21:54.398Z,99050.41
2023-04-15T18:24:21.126Z,99049.41
2023-04-15T18:26:49.194Z,99054.41
2023-04-15T18:29:16.374Z,99052.63
2023-04-15T18:31:43.157Z,99054.81
2023-04-15T18:34:10.194Z,99057.63
2023-04-15T18:36:36.960Z,99068.84
2023-04-15T18:39:04.369Z,99073.63
2023-04-15T18:41:31.326Z,99074.63
2023-04-15T18:43:58.050Z,99082.19
2023-04-15T18:46:24.915Z,99085.47
2023-04-15T18:48:51.611Z,99088.59
2023-04-15T18:51:18.392Z,99089.22
2023-04-15T18:53:45.581Z,99094.00
2023-04-15T18:56:12.366Z,99099.13
2023-04-15T18:59:22.918Z,99115.47
2023-04-15T19:01:26.360Z,99105.63
2023-04-15T19:03:53.287Z,99107.34
2023-04-15T19:06:20.259Z,99109.06
2023-04-15T19:08:46.984Z,99111.84
2023-04-15T19:11:13.725Z,99115.41
2023-04-15T19:13:40.817Z,99120.81
2023-04-15T19:16:07.603Z,99135.00
2023-04-15T19:18:34.390Z,99129.81
2023-04-15T19:21:01.240Z,99134.13
2023-04-15T19:23:27.919Z,99140.28
2023-04-15T19:25:54.663Z,99144.31
2023-04-15T19:28:21.422Z,99140.94
2023-04-15T19:30:48.261Z,99152.47
2023-04-15T19:33:14.961Z,99153.88
2023-04-15T19:35:41.753Z,99146.78
2023-04-15T19:38:08.537Z,99153.09
2023-04-15T19:40:35.253Z,99151.41
2023-04-15T19:43:02.027Z,99156.78
2023-04-15T19:45:28.704Z,99154.63
2023-04-15T19:47:55.415Z,99154.31
2023-04-15T19:50:25.986Z,99155.84
2023-04-15T19:52:53.191Z,99162.16
2023-04-15T19:55:20.117Z,99168.94
2023-04-15T19:57:46.952Z,99171.06
2023-04-15T20:00:13.825Z,99162.78
2023-04-15T20:02:40.890Z,99167.56
2023-04-15T20:05:09.963Z,99170.16
2023-04-15T20:07:36.863Z,99176.78
2023-04-15T20:10:12.006Z,99185.13
2023-04-15T20:12:50.837Z,99179.88
2023-04-15T20:15:20.674Z,99181.53
2023-04-15T20:17:47.521Z,99184.16
2023-04-15T20:20:14.350Z,99188.94
2023-04-15T20:22:41.454Z,99185.25
2023-04-15T20:25:08.579Z,99188.31
2023-04-15T20:27:35.498Z,99185.25
2023-04-15T20:30:04.184Z,99184.47
2023-04-15T20:32:35.327Z,99190.47
2023-04-15T20:35:03.651Z,99188.31
2023-04-15T20:37:32.984Z,99192.16
2023-04-15T20:40:00.353Z,99196.28
2023-04-15T20:42:27.123Z,99198.16
2023-04-15T20:44:53.773Z,99203.50
2023-04-15T20:47:20.553Z,99197.22
2023-04-15T20:49:47.470Z,99201.06
2023-04-15T20:52:14.285Z,99202.16
2023-04-15T20:54:41.137Z,99197.22
2023-04-15T20:57:07.938Z,99204.28
2023-04-15T20:59:34.954Z,99202.16
2023-04-15T21:02:02.294Z,99214.16
2023-04-15T21:04:29.043Z,99210.13
2023-04-15T21:06:56.071Z,99209.84
2023-04-15T21:09:22.828Z,99208.44
2023-04-15T21:14:19.465Z,99221.34
2023-04-15T21:16:46.310Z,99222.88
2023-04-15T21:19:13.049Z,99223.63
2023-04-15T21:21:39.734Z,99229.78
2023-04-15T21:24:09.245Z,99231.94
2023-04-15T21:26:36.217Z,99236.25
2023-04-15T21:29:03.407Z,99235.16
2023-04-15T21:31:30.448Z,99241.16
2023-04-15T21:33:57.338Z,99241.16
2023-04-15T21:36:24.101Z,99240.38
2023-04-15T21:38:50.936Z,99247.78
2023-04-15T21:41:17.707Z,99251.63
2023-04-15T21:43:44.435Z,99247.47
2023-04-15T21:46:23.388Z,99252.25
2023-04-15T21:48:52.946Z,99247.31
2023-04-15T21:51:19.787Z,99249.94
2023-04-15T21:53:46.754Z,99254.72
2023-04-15T21:56:13.507Z,99255.94
2023-04-15T21:58:40.260Z,99248.56
2023-04-15T22:01:07.033Z,99256.09
2023-04-15T22:03:34.832Z,99265.47
2023-04-15T22:06:02.758Z,99258.69
2023-04-15T22:08:32.085Z,99261.31
2023-04-15T22:11:00.569Z,99267.31
2023-04-15T22:13:27.305Z,99266.56
2023-04-15T22:15:54.058Z,99271.00
2023-04-15T22:18:20.752Z,99262.41
2023-04-15T22:20:47.465Z,99262.72
2023-04-15T22:23:17.417Z,99267.97
2023-04-15T22:25:44.286Z,99273.81
2023-04-15T22:28:11.017Z,99279.06
2023-04-15T22:30:39.087Z,99274.41
2023-04-15T22:33:06.499Z,99278.78
2023-04-15T22:35:34.389Z,99279.38
2023-04-15T22:38:01.370Z,99279.22
2023-04-15T22:40:28.934Z,99283.25
2023-04-15T22:42:55.762Z,99285.72
2023-04-15T22:45:22.514Z,99285.38
2023-04-15T22:47:49.198Z,99287.84
2023-04-15T22:50:16.222Z,99284.31
2023-04-15T22:52:46.118Z,99289.09
2023-04-15T22:55:12.893Z,99292.16
2023-04-15T22:57:39.592Z,99289.88
2023-04-15T23:00:07.413Z,99290.66
2023-04-15T23:02:34.786Z,99284.94
2023-04-15T23:05:03.164Z,99288.78
2023-04-15T23:07:38.504Z,99297.09
2023-04-15T23:10:05.727Z,99292.63
2023-04-15T23:12:32.514Z,99291.88
2023-04-15T23:14:59.249Z,99292.31
2023-04-15T23:17:26.734Z,99290.78
2023-04-15T23:19:53.528Z,99292.31
2023-04-15T23:22:20.220Z,99291.25
2023-04-15T23:24:46.913Z,99289.41
2023-04-15T23:27:13.643Z,99292.31
2023-04-15T23:29:40.833Z,99290.78
2023-04-15T23:32:07.556Z,99289.25
2023-04-15T23:34:34.269Z,99294.47
2023-04-15T23:37:00.973Z,99289.88
2023-04-15T23:39:27.758Z,99292.34
2023-04-15T23:41:54.556Z,99298.94
2023-04-15T23:44:21.229Z,99295.09
2023-04-15T23:46:48.048Z,99290.03
2023-04-15T23:49:14.841Z,99298.19
2023-04-15T23:51:41.570Z,99304.03
2023-04-15T23:54:08.314Z,99300.19
2023-04-15T23:56:35.021Z,99301.72
2023-04-15T23:59:01.706Z,99298.19
